Time;durP1;ratioP1;P1;durP2;ratioP2;P2;SDS_P1;SDS_P2;PMS_P1;PMS_P2;Temp;Humidity;BMP_temperature;BMP_pressure;BME280_temperature;BME280_humidity;BME280_pressure;Samples;Min_cycle;Max_cycle;Signal;HPM_P1;HPM_P2
2022/02/14 00:03:18;;;;;;;4.90;4.20;;;5.80;30.20;;;;;;10524433;28;20606;-69
2022/02/14 00:08:21;;;;;;;4.67;4.17;;;5.80;31.10;;;;;;10524175;28;20223;-70
2022/02/14 00:13:24;;;;;;;3.80;3.50;;;5.70;30.30;;;;;;10520146;28;20231;-69
2022/02/14 00:18:28;;;;;;;4.73;3.83;;;5.70;30.40;;;;;;10523498;28;20227;-70
2022/02/14 00:23:32;;;;;;;4.03;3.63;;;5.60;30.50;;;;;;10522449;28;20226;-70
2022/02/14 00:28:35;;;;;;;4.60;4.00;;;5.60;30.40;;;;;;10520889;28;20234;-70
2022/02/14 00:33:39;;;;;;;6.40;4.97;;;5.50;30.50;;;;;;10518266;28;20707;-69
2022/02/14 00:38:43;;;;;;;5.47;4.97;;;5.50;30.50;;;;;;10519480;28;20612;-69
2022/02/14 00:43:46;;;;;;;7.20;5.10;;;5.50;30.50;;;;;;10521926;28;20265;-69
2022/02/14 00:48:50;;;;;;;4.53;4.13;;;5.40;30.50;;;;;;10519183;28;20226;-69
2022/02/14 00:53:54;;;;;;;4.13;3.73;;;5.40;30.80;;;;;;10522595;28;20222;-69
2022/02/14 00:58:59;;;;;;;4.47;4.07;;;5.30;30.70;;;;;;10520571;28;20349;-69
2022/02/14 01:04:04;;;;;;;5.43;4.33;;;5.30;30.80;;;;;;10522344;28;20239;-69
2022/02/14 01:09:08;;;;;;;4.27;3.87;;;5.30;30.80;;;;;;10519165;28;20229;-69
2022/02/14 01:14:12;;;;;;;4.53;3.67;;;5.30;30.80;;;;;;10521361;28;20223;-69
2022/02/14 01:19:16;;;;;;;5.20;4.03;;;5.30;30.60;;;;;;10521551;28;20224;-69
2022/02/14 01:24:19;;;;;;;3.70;3.40;;;5.30;30.70;;;;;;10519520;28;20231;-69
2022/02/14 01:29:23;;;;;;;4.77;4.10;;;5.30;30.70;;;;;;10519816;28;20258;-69
2022/02/14 01:34:28;;;;;;;4.13;3.57;;;5.20;30.60;;;;;;10518512;28;20224;-70
2022/02/14 01:39:32;;;;;;;4.63;3.90;;;5.20;30.80;;;;;;10517316;28;20227;-70
2022/02/14 01:44:38;;;;;;;6.80;4.10;;;5.20;30.70;;;;;;10520786;28;20220;-70
2022/02/14 01:49:43;;;;;;;5.33;4.47;;;5.20;30.80;;;;;;10512004;28;20227;-70
2022/02/14 01:54:48;;;;;;;4.80;4.10;;;5.10;30.80;;;;;;10519802;28;20227;-70
2022/02/14 01:59:51;;;;;;;5.33;4.67;;;5.10;30.60;;;;;;10520072;28;20227;-70
2022/02/14 02:04:56;;;;;;;5.03;4.17;;;5.10;30.50;;;;;;10518782;28;20695;-70
2022/02/14 02:09:59;;;;;;;4.77;4.27;;;5.00;30.70;;;;;;10514404;28;20220;-70
2022/02/14 02:15:05;;;;;;;5.87;4.30;;;5.00;30.60;;;;;;10515833;28;20219;-70
2022/02/14 02:20:13;;;;;;;5.20;4.20;;;4.90;30.60;;;;;;10515842;28;20230;-70
2022/02/14 02:25:18;;;;;;;7.47;4.93;;;4.90;30.60;;;;;;10519736;28;20285;-70
2022/02/14 02:30:22;;;;;;;8.83;5.57;;;4.80;30.50;;;;;;10519538;28;20746;-70
2022/02/14 02:35:26;;;;;;;7.53;4.53;;;4.80;30.50;;;;;;10515613;28;20227;-70
2022/02/14 02:40:31;;;;;;;5.87;4.60;;;4.70;30.50;;;;;;10519411;28;20597;-70
2022/02/14 02:45:34;;;;;;;5.63;4.13;;;4.60;30.40;;;;;;10515889;28;20224;-70
2022/02/14 02:51:01;;;;;;;5.63;3.87;;;4.50;30.30;;;;;;10524666;28;20616;-70
2022/02/14 02:56:05;;;;;;;4.40;3.63;;;4.50;30.30;;;;;;10525195;28;20604;-70
2022/02/14 03:01:08;;;;;;;3.77;3.37;;;4.40;30.40;;;;;;10525952;28;20815;-70
2022/02/14 03:06:11;;;;;;;4.10;3.70;;;4.40;30.20;;;;;;10526227;28;20231;-70
2022/02/14 03:11:16;;;;;;;6.73;4.80;;;4.30;30.20;;;;;;10525895;28;20227;-70
2022/02/14 03:16:19;;;;;;;13.10;6.57;;;4.20;30.60;;;;;;10525008;28;20236;-70
2022/02/14 03:21:24;;;;;;;14.27;7.07;;;4.20;30.50;;;;;;10523889;28;20710;-70
2022/02/14 03:26:29;;;;;;;12.13;6.47;;;4.10;30.30;;;;;;10523798;28;20223;-70
2022/02/14 03:31:32;;;;;;;10.47;6.50;;;4.10;30.50;;;;;;10523997;28;20220;-70
2022/02/14 03:36:36;;;;;;;8.87;5.27;;;4.00;30.30;;;;;;10525452;28;20227;-70
2022/02/14 03:41:41;;;;;;;8.20;4.87;;;4.00;30.70;;;;;;10525034;28;20224;-70
2022/02/14 03:46:44;;;;;;;7.43;5.63;;;4.00;30.70;;;;;;10525259;28;20318;-70
2022/02/14 03:51:47;;;;;;;6.73;4.47;;;4.00;30.70;;;;;;10525284;28;20220;-70
2022/02/14 03:56:52;;;;;;;6.87;4.20;;;3.90;30.70;;;;;;10523695;28;20223;-70
2022/02/14 04:01:55;;;;;;;6.40;4.50;;;4.00;30.90;;;;;;10519058;28;20220;-70
2022/02/14 04:07:00;;;;;;;5.93;4.27;;;3.90;30.80;;;;;;10524117;28;20243;-70
2022/02/14 04:12:05;;;;;;;7.37;5.17;;;3.90;30.70;;;;;;10522797;28;20239;-70
2022/02/14 04:17:08;;;;;;;9.47;4.50;;;3.80;30.70;;;;;;10522238;28;20227;-70
2022/02/14 04:22:11;;;;;;;4.73;3.97;;;3.80;30.60;;;;;;10521903;28;20227;-70
2022/02/14 04:27:16;;;;;;;3.50;3.13;;;3.80;30.80;;;;;;10521680;28;20233;-70
2022/02/14 04:32:19;;;;;;;4.03;3.47;;;3.70;30.90;;;;;;10522148;28;20227;-70
2022/02/14 04:37:22;;;;;;;4.50;3.57;;;3.70;31.00;;;;;;10522018;28;20231;-70
2022/02/14 04:42:27;;;;;;;3.33;3.03;;;3.70;31.00;;;;;;10520207;28;20228;-70
2022/02/14 04:47:30;;;;;;;3.27;2.97;;;3.60;31.00;;;;;;10519549;28;20600;-70
2022/02/14 04:52:33;;;;;;;3.63;2.90;;;3.60;31.00;;;;;;10518645;28;20223;-71
2022/02/14 04:57:38;;;;;;;3.63;3.00;;;3.50;30.90;;;;;;10518659;28;20227;-71
2022/02/14 05:02:41;;;;;;;6.37;2.90;;;3.50;31.20;;;;;;10523383;28;20655;-71
2022/02/14 05:07:45;;;;;;;3.53;3.23;;;3.40;31.00;;;;;;10520564;28;20224;-71
2022/02/14 05:12:50;;;;;;;3.67;2.93;;;3.40;30.90;;;;;;10522457;28;20228;-71
2022/02/14 05:17:54;;;;;;;7.90;4.83;;;3.40;31.10;;;;;;10522164;28;20234;-71
2022/02/14 05:22:57;;;;;;;4.50;3.90;;;3.30;30.90;;;;;;10520386;28;20220;-71
2022/02/14 05:28:06;;;;;;;6.13;4.37;;;3.50;31.20;;;;;;10516789;28;20224;-71
2022/02/14 05:33:09;;;;;;;6.90;3.93;;;3.30;31.40;;;;;;10518597;28;20224;-71
2022/02/14 05:38:12;;;;;;;5.23;4.00;;;3.30;31.30;;;;;;10519951;28;20223;-71
2022/02/14 05:43:16;;;;;;;4.33;3.23;;;3.20;31.20;;;;;;10519419;28;20239;-71
2022/02/14 05:48:26;;;;;;;4.47;3.20;;;3.20;31.50;;;;;;10519940;28;20586;-70
2022/02/14 05:53:29;;;;;;;3.13;2.83;;;3.20;31.50;;;;;;10518202;28;20294;-70
2022/02/14 05:58:34;;;;;;;4.17;3.10;;;3.20;31.60;;;;;;10517384;28;20215;-70
2022/02/14 06:03:37;;;;;;;3.23;2.93;;;3.20;31.70;;;;;;10521066;28;20223;-69
2022/02/14 06:08:40;;;;;;;3.53;3.20;;;3.30;31.70;;;;;;10518050;28;20219;-69
2022/02/14 06:13:45;;;;;;;4.00;3.10;;;3.20;31.70;;;;;;10519574;28;20607;-67
2022/02/14 06:18:48;;;;;;;2.97;2.63;;;3.30;33.60;;;;;;10514141;28;20223;-67
2022/02/14 06:23:51;;;;;;;3.73;2.70;;;3.40;32.90;;;;;;10521316;28;20215;-67
2022/02/14 06:28:55;;;;;;;2.63;2.43;;;3.50;32.60;;;;;;10528072;28;20230;-67
2022/02/14 06:33:59;;;;;;;2.90;2.70;;;3.50;32.40;;;;;;10527982;28;20250;-67
2022/02/14 06:39:03;;;;;;;3.17;2.80;;;3.50;32.20;;;;;;10526762;28;20227;-68
2022/02/14 06:44:08;;;;;;;2.93;2.63;;;3.40;32.10;;;;;;10528898;28;20592;-67
2022/02/14 06:49:11;;;;;;;3.20;2.50;;;3.40;32.20;;;;;;10523000;28;20632;-67
2022/02/14 06:54:14;;;;;;;3.17;2.87;;;3.40;32.00;;;;;;10526999;28;20238;-69
2022/02/14 06:59:19;;;;;;;3.13;2.67;;;3.40;32.10;;;;;;10523836;28;20624;-69
2022/02/14 07:04:22;;;;;;;2.80;2.60;;;3.40;32.20;;;;;;10525899;28;20223;-69
2022/02/14 07:09:25;;;;;;;3.33;3.03;;;3.50;32.30;;;;;;10525123;28;20232;-69
2022/02/14 07:14:30;;;;;;;2.77;2.57;;;3.50;32.30;;;;;;10524939;28;20231;-69
2022/02/14 07:19:33;;;;;;;3.27;2.97;;;3.50;32.30;;;;;;10526095;28;20230;-69
2022/02/14 07:24:36;;;;;;;4.57;3.07;;;3.50;32.40;;;;;;10522904;28;20230;-69
2022/02/14 07:29:40;;;;;;;3.27;2.97;;;3.60;32.50;;;;;;10524583;28;20235;-69
2022/02/14 07:34:43;;;;;;;3.63;3.33;;;3.50;32.50;;;;;;10522627;28;20220;-69
2022/02/14 07:39:47;;;;;;;4.57;3.47;;;3.60;32.40;;;;;;10521080;28;20227;-69
2022/02/14 07:44:52;;;;;;;3.83;3.03;;;3.60;32.40;;;;;;10523141;28;20219;-72
2022/02/14 07:49:55;;;;;;;3.63;3.10;;;3.70;32.80;;;;;;10522196;28;20223;-71
2022/02/14 07:54:58;;;;;;;4.87;3.13;;;3.70;32.50;;;;;;10525486;28;20900;-72
2022/02/14 08:00:05;;;;;;;3.20;2.90;;;3.80;32.80;;;;;;10514191;28;20226;-72
2022/02/14 08:05:09;;;;;;;4.23;2.97;;;3.90;33.10;;;;;;10520565;28;20219;-72
2022/02/14 08:10:14;;;;;;;4.10;2.97;;;4.00;33.20;;;;;;10523356;28;20222;-72
2022/02/14 08:15:19;;;;;;;3.23;2.93;;;4.10;33.20;;;;;;10522007;28;20242;-71
2022/02/14 08:20:22;;;;;;;3.87;3.47;;;4.30;33.70;;;;;;10522027;28;20235;-67
2022/02/14 08:25:25;;;;;;;3.70;3.13;;;4.50;33.60;;;;;;10522685;28;20223;-67
2022/02/14 08:30:32;;;;;;;4.57;3.43;;;4.70;33.60;;;;;;10516832;28;20475;-68
2022/02/14 08:35:35;;;;;;;4.17;3.43;;;4.90;33.50;;;;;;10520817;28;20323;-68
2022/02/14 08:40:38;;;;;;;3.67;3.10;;;5.00;33.10;;;;;;10521829;28;20749;-71
2022/02/14 08:45:43;;;;;;;3.77;3.47;;;5.10;33.20;;;;;;10516402;28;20247;-72
2022/02/14 08:50:46;;;;;;;3.67;3.33;;;5.30;33.40;;;;;;10517904;28;20234;-72
2022/02/14 08:55:49;;;;;;;3.70;3.30;;;5.40;33.50;;;;;;10522354;28;20695;-73
2022/02/14 09:00:53;;;;;;;4.47;3.60;;;5.60;33.50;;;;;;10522746;28;20231;-72
2022/02/14 09:05:58;;;;;;;4.60;4.10;;;5.70;33.60;;;;;;10516265;28;20714;-72
2022/02/14 09:11:01;;;;;;;4.77;3.93;;;5.90;33.40;;;;;;10518201;28;21125;-72
2022/02/14 09:16:07;;;;;;;4.33;3.70;;;6.10;33.40;;;;;;10520790;28;20220;-71
2022/02/14 09:21:10;;;;;;;5.80;4.00;;;6.30;33.10;;;;;;10519299;28;20235;-72
2022/02/14 09:26:13;;;;;;;4.20;3.80;;;6.50;33.10;;;;;;10517026;28;20238;-72
2022/02/14 09:31:18;;;;;;;4.87;3.90;;;6.60;32.90;;;;;;10517580;28;20588;-72
2022/02/14 09:36:22;;;;;;;3.57;3.20;;;6.80;32.60;;;;;;10515189;28;20563;-72
2022/02/14 09:41:27;;;;;;;3.47;3.10;;;7.00;32.40;;;;;;10518954;28;21123;-72
2022/02/14 09:46:32;;;;;;;3.10;2.80;;;7.10;32.00;;;;;;10516840;28;20224;-72
2022/02/14 09:51:36;;;;;;;4.17;3.40;;;7.30;31.50;;;;;;10516360;28;20235;-72
2022/02/14 09:56:41;;;;;;;6.20;4.10;;;7.40;31.50;;;;;;10514169;28;20232;-72
2022/02/14 10:01:46;;;;;;;5.17;3.80;;;7.50;31.40;;;;;;10517638;28;20697;-72
2022/02/14 10:06:51;;;;;;;5.07;3.50;;;7.60;31.60;;;;;;10513817;28;20224;-72
2022/02/14 10:12:01;;;;;;;4.10;3.70;;;7.70;31.60;;;;;;10515851;28;20252;-72
2022/02/14 10:17:09;;;;;;;4.90;4.30;;;7.80;31.40;;;;;;10517320;28;20231;-72
2022/02/14 10:22:12;;;;;;;6.43;4.93;;;7.90;31.60;;;;;;10516260;28;20228;-72
2022/02/14 10:27:17;;;;;;;7.53;5.20;;;8.00;31.80;;;;;;10518196;28;20231;-72
2022/02/14 10:32:23;;;;;;;5.00;4.53;;;8.10;31.90;;;;;;10515202;28;20227;-72
2022/02/14 10:37:40;;;;;;;5.60;4.70;;;8.10;31.50;;;;;;10517040;28;20698;-72
2022/02/14 10:42:50;;;;;;;5.73;4.87;;;8.20;31.40;;;;;;10518196;28;20412;-72
2022/02/14 10:47:56;;;;;;;5.20;4.70;;;8.30;31.90;;;;;;10513605;28;20219;-72
2022/02/14 10:53:01;;;;;;;5.13;4.63;;;8.30;31.50;;;;;;10517578;28;20231;-73
2022/02/14 10:58:05;;;;;;;4.93;4.53;;;8.40;31.40;;;;;;10517950;28;20222;-69
2022/02/14 11:03:11;;;;;;;5.00;4.50;;;8.50;31.60;;;;;;10519238;28;20216;-69
2022/02/14 11:08:16;;;;;;;6.20;5.00;;;8.70;31.40;;;;;;10519324;28;20227;-69
2022/02/14 11:13:24;;;;;;;6.37;4.77;;;8.90;31.70;;;;;;10525914;28;20224;-69
2022/02/14 11:18:32;;;;;;;5.07;4.57;;;9.10;31.30;;;;;;10523045;28;20223;-69
2022/02/14 11:23:49;;;;;;;5.83;4.37;;;9.30;30.90;;;;;;10524098;28;20309;-70
2022/02/14 11:28:57;;;;;;;4.97;4.47;;;9.50;30.50;;;;;;10521735;28;20236;-70
2022/02/14 11:34:04;;;;;;;6.47;5.00;;;9.70;30.50;;;;;;10523899;28;20216;-71
2022/02/14 11:39:09;;;;;;;5.30;4.80;;;9.80;30.60;;;;;;10524035;28;20234;-71
2022/02/14 11:44:20;;;;;;;5.20;4.60;;;10.00;29.70;;;;;;10522254;28;20223;-70
2022/02/14 11:49:35;;;;;;;6.17;4.20;;;10.10;29.20;;;;;;10520931;28;20614;-70
2022/02/14 11:54:48;;;;;;;5.83;4.33;;;10.20;28.50;;;;;;10519594;28;20519;-70
2022/02/14 11:59:52;;;;;;;4.80;4.30;;;10.30;29.20;;;;;;10512932;28;20224;-70
2022/02/14 12:04:57;;;;;;;5.87;4.43;;;10.40;29.10;;;;;;10517469;28;20227;-71
2022/02/14 12:10:28;;;;;;;5.23;4.27;;;10.50;28.70;;;;;;10518682;28;20396;-70
2022/02/14 12:21:16;;;;;;;4.10;3.37;;;10.70;28.20;;;;;;10519882;28;20238;-72
2022/02/14 12:26:39;;;;;;;6.63;3.67;;;10.80;28.90;;;;;;10520556;28;20223;-73
2022/02/14 12:31:44;;;;;;;6.47;4.73;;;10.80;28.90;;;;;;10517996;28;20231;-71
2022/02/14 12:36:57;;;;;;;5.33;4.20;;;10.90;28.40;;;;;;10516746;28;20681;-70
2022/02/14 12:42:09;;;;;;;6.30;5.27;;;11.00;27.80;;;;;;10514976;28;20763;-70
2022/02/14 12:47:16;;;;;;;6.90;5.33;;;11.10;26.70;;;;;;10515363;28;20687;-70
2022/02/14 12:52:26;;;;;;;7.40;5.30;;;11.20;27.90;;;;;;10518517;28;20326;-70
2022/02/14 12:57:41;;;;;;;7.57;5.20;;;11.30;27.40;;;;;;10520133;28;20247;-70
2022/02/14 13:02:49;;;;;;;8.47;5.17;;;11.30;26.60;;;;;;10519320;28;20249;-71
2022/02/14 13:07:54;;;;;;;6.33;5.30;;;11.40;26.90;;;;;;10514247;28;20228;-71
2022/02/14 13:12:59;;;;;;;6.40;4.77;;;11.50;27.20;;;;;;10515616;28;20699;-70
2022/02/14 13:18:03;;;;;;;6.30;4.77;;;11.50;27.60;;;;;;10514915;28;20227;-72
2022/02/14 13:23:07;;;;;;;7.13;5.07;;;11.50;27.80;;;;;;10515348;28;20223;-72
2022/02/14 13:28:26;;;;;;;7.67;5.30;;;11.60;27.60;;;;;;10515473;28;20230;-73
2022/02/14 13:33:30;;;;;;;9.30;7.63;;;11.60;27.90;;;;;;10511109;28;20309;-72
2022/02/14 13:38:36;;;;;;;11.17;7.90;;;11.70;27.80;;;;;;10515479;28;20234;-72
2022/02/14 13:43:43;;;;;;;11.10;8.00;;;11.60;27.00;;;;;;10518087;28;20288;-72
2022/02/14 13:48:48;;;;;;;9.77;7.20;;;11.70;27.80;;;;;;10517113;28;20734;-73
2022/02/14 13:54:04;;;;;;;7.60;6.03;;;11.70;27.20;;;;;;10515985;28;20242;-74
2022/02/14 13:59:15;;;;;;;5.30;4.77;;;11.70;26.40;;;;;;10517791;28;20223;-72
2022/02/14 14:04:26;;;;;;;5.70;5.10;;;11.80;26.80;;;;;;10515191;28;20719;-72
2022/02/14 14:09:39;;;;;;;5.10;4.50;;;11.80;27.00;;;;;;10516794;28;20231;-72
2022/02/14 14:14:43;;;;;;;4.87;4.00;;;11.90;27.60;;;;;;10516115;28;20261;-72
2022/02/14 14:19:49;;;;;;;4.77;4.10;;;11.90;27.70;;;;;;10518291;28;20227;-72
2022/02/14 14:24:59;;;;;;;5.10;4.43;;;12.00;27.70;;;;;;10515882;28;20711;-72
2022/02/14 14:30:05;;;;;;;4.60;4.10;;;12.00;27.30;;;;;;10516014;28;20220;-72
2022/02/14 14:35:08;;;;;;;5.33;4.27;;;12.10;27.60;;;;;;10517613;28;20707;-72
2022/02/14 14:40:15;;;;;;;7.20;5.87;;;12.10;27.80;;;;;;10519169;28;20320;-73
2022/02/14 14:45:19;;;;;;;8.67;6.20;;;12.20;27.70;;;;;;10518252;28;20211;-72
2022/02/14 14:50:23;;;;;;;6.60;6.00;;;12.20;28.10;;;;;;10523375;28;20739;-72
2022/02/14 14:55:30;;;;;;;7.63;6.40;;;12.20;28.10;;;;;;10525339;28;20977;-73
2022/02/14 15:00:33;;;;;;;6.50;5.40;;;12.20;28.20;;;;;;10525189;28;20225;-68
2022/02/14 15:05:37;;;;;;;7.97;5.43;;;12.20;28.30;;;;;;10522934;28;20276;-68
2022/02/14 15:10:43;;;;;;;7.37;5.43;;;12.20;28.50;;;;;;10522920;28;20227;-68
2022/02/14 15:15:46;;;;;;;5.57;4.63;;;12.20;29.20;;;;;;10524666;28;20232;-68
2022/02/14 15:20:50;;;;;;;7.47;6.37;;;12.20;29.00;;;;;;10523327;28;20230;-68
2022/02/14 15:25:54;;;;;;;9.80;6.80;;;12.30;29.00;;;;;;10522438;28;20215;-68
2022/02/14 15:30:58;;;;;;;10.60;6.80;;;12.30;29.40;;;;;;10522686;28;20620;-68
2022/02/14 15:36:01;;;;;;;11.00;7.93;;;12.30;29.50;;;;;;10520036;28;20245;-68
2022/02/14 15:41:08;;;;;;;11.27;6.37;;;12.30;29.30;;;;;;10521365;28;20224;-68
2022/02/14 15:46:11;;;;;;;11.10;7.87;;;12.20;29.50;;;;;;10521867;28;20232;-68
2022/02/14 15:51:15;;;;;;;10.57;7.67;;;12.20;29.80;;;;;;10519081;28;20622;-68
2022/02/14 15:56:20;;;;;;;10.37;8.17;;;12.20;29.80;;;;;;10521376;28;20280;-68
2022/02/14 16:01:23;;;;;;;18.10;9.57;;;12.20;29.50;;;;;;10520539;28;20234;-68
2022/02/14 16:06:28;;;;;;;9.87;8.00;;;12.20;29.40;;;;;;10518145;28;20238;-68
2022/02/14 16:11:33;;;;;;;16.70;9.50;;;12.10;29.40;;;;;;10522232;28;20273;-68
2022/02/14 16:16:36;;;;;;;15.87;10.87;;;12.10;29.70;;;;;;10520292;28;20235;-68
2022/02/14 16:21:44;;;;;;;12.13;9.23;;;12.00;29.70;;;;;;10521548;28;20224;-68
2022/02/14 16:26:48;;;;;;;10.87;7.73;;;12.00;29.70;;;;;;10520048;28;20638;-68
2022/02/14 16:31:51;;;;;;;10.57;8.30;;;12.00;29.70;;;;;;10518128;28;20215;-68
2022/02/14 16:36:55;;;;;;;9.40;7.63;;;12.00;29.70;;;;;;10520629;28;20231;-68
2022/02/14 16:41:59;;;;;;;9.47;8.13;;;11.90;29.60;;;;;;10519367;28;20228;-68
2022/02/14 16:47:03;;;;;;;13.13;8.13;;;11.80;29.50;;;;;;10518521;28;20228;-72
2022/02/14 16:52:06;;;;;;;8.27;7.23;;;11.80;29.50;;;;;;10518888;28;20228;-73
2022/02/14 16:57:11;;;;;;;9.30;6.97;;;11.70;30.00;;;;;;10517995;28;20232;-73
2022/02/14 17:02:16;;;;;;;12.67;7.67;;;11.60;30.00;;;;;;10519027;28;20231;-73
2022/02/14 17:07:19;;;;;;;9.57;7.80;;;11.50;29.60;;;;;;10515132;28;20234;-73
2022/02/14 17:12:25;;;;;;;11.20;7.87;;;11.40;29.60;;;;;;10519572;28;20230;-73
2022/02/14 17:17:28;;;;;;;12.47;8.30;;;11.30;29.80;;;;;;10515987;28;20603;-73
2022/02/14 17:22:31;;;;;;;10.60;7.40;;;11.20;29.70;;;;;;10517215;28;20282;-73
2022/02/14 17:27:36;;;;;;;14.63;9.40;;;11.10;29.70;;;;;;10518502;28;20231;-73
2022/02/14 17:32:42;;;;;;;21.40;13.07;;;11.00;29.90;;;;;;10517887;28;20596;-73
2022/02/14 17:37:46;;;;;;;18.17;12.00;;;11.00;30.00;;;;;;10517615;28;20844;-73
2022/02/14 17:42:50;;;;;;;22.40;14.00;;;11.00;29.80;;;;;;10517554;28;20333;-73
2022/02/14 17:47:54;;;;;;;21.37;15.57;;;10.80;29.70;;;;;;10517977;28;20227;-72
2022/02/14 17:52:58;;;;;;;15.13;11.77;;;10.70;29.70;;;;;;10515388;28;20239;-72
2022/02/14 17:58:02;;;;;;;11.30;9.23;;;10.60;29.60;;;;;;10517558;28;20219;-72
2022/02/14 18:03:08;;;;;;;15.87;12.37;;;10.50;29.70;;;;;;10519603;28;20723;-72
2022/02/14 18:08:11;;;;;;;14.43;11.63;;;10.40;29.70;;;;;;10516826;28;20631;-72
2022/02/14 18:13:16;;;;;;;9.87;8.87;;;10.30;29.80;;;;;;10516230;28;20228;-72
2022/02/14 18:18:20;;;;;;;12.90;9.23;;;10.20;29.90;;;;;;10519172;28;20230;-71
2022/02/14 18:23:23;;;;;;;12.33;8.33;;;10.10;29.90;;;;;;10526107;28;20231;-71
2022/02/14 18:28:32;;;;;;;11.33;8.67;;;10.10;30.00;;;;;;10525925;28;20591;-71
2022/02/14 18:33:35;;;;;;;10.20;8.03;;;10.00;30.00;;;;;;10526354;28;20223;-71
2022/02/14 18:38:38;;;;;;;14.63;12.17;;;10.00;30.00;;;;;;10521970;28;20606;-71
2022/02/14 18:43:58;;;;;;;18.27;16.13;;;9.90;30.80;;;;;;10526654;28;20233;-71
2022/02/14 18:49:01;;;;;;;18.40;15.80;;;9.80;30.90;;;;;;10523197;28;20224;-71
2022/02/14 18:54:04;;;;;;;11.20;10.10;;;9.70;30.90;;;;;;10525790;28;20219;-73
2022/02/14 18:59:09;;;;;;;12.73;9.33;;;9.70;31.00;;;;;;10524959;28;20231;-73
2022/02/14 19:04:12;;;;;;;13.17;11.77;;;9.60;31.20;;;;;;10521817;28;20686;-73
2022/02/14 19:09:17;;;;;;;12.30;10.80;;;9.50;31.00;;;;;;10522555;28;20223;-73
2022/02/14 19:14:22;;;;;;;11.97;10.43;;;9.50;31.30;;;;;;10521971;28;20227;-73
2022/02/14 19:19:26;;;;;;;13.30;9.93;;;9.40;31.50;;;;;;10520489;28;20224;-73
2022/02/14 19:24:29;;;;;;;14.63;9.93;;;9.30;31.50;;;;;;10523561;28;20730;-73
2022/02/14 19:29:34;;;;;;;11.53;10.30;;;9.30;31.50;;;;;;10522271;28;20684;-73
2022/02/14 19:34:38;;;;;;;13.77;11.17;;;9.20;31.70;;;;;;10521535;28;20228;-73
2022/02/14 19:39:46;;;;;;;14.47;11.20;;;9.10;31.60;;;;;;10522730;28;20231;-72
2022/02/14 19:44:50;;;;;;;12.97;10.57;;;9.10;31.70;;;;;;10520893;28;20247;-73
2022/02/14 19:49:54;;;;;;;14.80;11.20;;;9.00;32.20;;;;;;10522620;28;20220;-73
2022/02/14 19:54:58;;;;;;;15.90;12.57;;;9.00;32.10;;;;;;10521879;28;20568;-73
2022/02/14 20:00:02;;;;;;;17.37;13.30;;;9.00;32.10;;;;;;10521325;28;20231;-73
2022/02/14 20:05:11;;;;;;;17.00;14.63;;;9.00;32.30;;;;;;10519404;28;20645;-72
2022/02/14 20:10:15;;;;;;;14.40;12.67;;;8.90;32.00;;;;;;10522288;28;20455;-73
2022/02/14 20:15:20;;;;;;;13.53;11.00;;;8.90;32.10;;;;;;10519586;28;20719;-72
2022/02/14 20:20:24;;;;;;;14.17;12.30;;;8.80;32.20;;;;;;10520127;28;20250;-73
2022/02/14 20:25:27;;;;;;;13.33;10.80;;;8.80;33.00;;;;;;10516661;28;20223;-73
2022/02/14 20:30:32;;;;;;;16.43;13.00;;;8.80;32.30;;;;;;10517950;28;20226;-73
2022/02/14 20:35:36;;;;;;;16.67;11.27;;;8.80;32.40;;;;;;10520518;28;20227;-72
2022/02/14 20:40:39;;;;;;;13.60;11.37;;;8.70;32.10;;;;;;10518493;28;20247;-73
2022/02/14 20:45:46;;;;;;;15.63;13.33;;;8.70;32.20;;;;;;10521824;28;20717;-73
2022/02/14 20:50:50;;;;;;;14.63;10.13;;;8.60;32.50;;;;;;10518895;28;20235;-73
2022/02/14 20:55:53;;;;;;;28.70;17.40;;;8.50;32.30;;;;;;10518497;28;20246;-72
2022/02/14 21:00:58;;;;;;;14.73;11.87;;;8.50;32.50;;;;;;10519233;28;20223;-72
2022/02/14 21:06:02;;;;;;;14.90;12.23;;;8.50;32.70;;;;;;10514398;28;20223;-72
2022/02/14 21:11:05;;;;;;;17.73;11.50;;;8.50;32.50;;;;;;10505790;28;20216;-72
2022/02/14 21:16:12;;;;;;;18.93;13.37;;;8.50;32.50;;;;;;10499764;28;20259;-72
2022/02/14 21:21:16;;;;;;;19.13;13.70;;;8.40;32.60;;;;;;10500416;28;20227;-72
2022/02/14 21:26:19;;;;;;;16.97;12.03;;;8.40;32.40;;;;;;10502045;28;20242;-72
2022/02/14 21:31:24;;;;;;;13.20;11.03;;;8.40;32.50;;;;;;10503569;28;20897;-72
2022/02/14 21:36:27;;;;;;;16.43;12.33;;;8.30;32.70;;;;;;10502590;28;20594;-72
2022/02/14 21:41:30;;;;;;;13.80;11.90;;;8.30;32.60;;;;;;10511270;28;20310;-72
2022/02/14 21:46:35;;;;;;;14.27;11.23;;;8.20;32.50;;;;;;10510384;28;20229;-72
2022/02/14 21:51:39;;;;;;;14.17;11.23;;;8.20;32.90;;;;;;10509932;28;20314;-72
2022/02/14 21:56:42;;;;;;;16.50;11.27;;;8.10;32.70;;;;;;10511785;28;20238;-72
2022/02/14 22:01:46;;;;;;;13.97;11.50;;;8.10;32.80;;;;;;10509864;28;20224;-72
2022/02/14 22:12:10;;;;;;;15.03;10.83;;;8.00;32.80;;;;;;10509404;28;20214;-70
2022/02/14 22:17:15;;;;;;;14.47;10.43;;;8.00;32.90;;;;;;10511126;28;20941;-70
2022/02/14 22:22:19;;;;;;;15.77;11.67;;;8.00;33.20;;;;;;10511289;28;20242;-70
2022/02/14 22:27:23;;;;;;;16.33;12.33;;;8.00;33.20;;;;;;10512360;28;20231;-70
2022/02/14 22:32:27;;;;;;;17.90;12.47;;;7.90;33.10;;;;;;10511492;28;20715;-70
2022/02/14 22:37:30;;;;;;;16.30;10.57;;;7.90;33.10;;;;;;10511824;28;20216;-70
2022/02/14 22:42:34;;;;;;;14.07;11.30;;;7.90;33.10;;;;;;10511619;28;20231;-70
2022/02/14 22:47:39;;;;;;;13.80;10.37;;;7.90;33.10;;;;;;10506591;28;20770;-70
2022/02/14 22:52:42;;;;;;;11.27;9.30;;;7.90;33.30;;;;;;10513683;28;20226;-70
2022/02/14 22:57:45;;;;;;;12.43;10.30;;;7.90;33.10;;;;;;10511234;28;20617;-70
2022/02/14 23:02:58;;;;;;;13.70;10.43;;;7.90;33.10;;;;;;10511333;28;20231;-70
2022/02/14 23:18:45;;;;;;;9.70;8.30;;;7.80;33.30;;;;;;10518205;28;20223;-70
2022/02/14 23:23:48;;;;;;;11.93;10.07;;;7.70;33.40;;;;;;10512272;28;20236;-72
2022/02/14 23:28:52;;;;;;;9.67;8.23;;;7.70;33.30;;;;;;10510467;28;20428;-70
2022/02/14 23:33:56;;;;;;;11.00;8.97;;;7.70;33.40;;;;;;10516673;28;20704;-70
2022/02/14 23:39:00;;;;;;;12.50;9.90;;;7.70;33.80;;;;;;10518339;28;20223;-70
2022/02/14 23:44:03;;;;;;;10.83;9.73;;;7.70;33.60;;;;;;10517953;28;20334;-72
2022/02/14 23:49:08;;;;;;;14.40;10.80;;;7.60;33.80;;;;;;10517345;28;20234;-73
2022/02/14 23:54:11;;;;;;;11.73;10.53;;;7.60;34.10;;;;;;10518392;28;20788;-73
2022/02/14 23:59:14;;;;;;;13.43;10.00;;;7.70;34.10;;;;;;10517917;28;20228;-73
